< < Back
Terminal Aerodrome Forecast


Current Version              Previous Versions:   1  2  3  4  5  6  7  8  9  

Terminal Aerodrome Forecast

611
FTUS44 KOHX 251133
TAFCSV
TAF
KCSV 251133Z 2512/2612 25004KT P6SM SCT035 SCT100
     FM251900 27004KT P6SM VCTS BKN040CB BKN250
     FM260000 23002KT P6SM BKN250
     FM260400 VRB03KT 4SM BR SCT100
     FM260800 VRB03KT 2SM BR SCT100=



Latest METAR

409
SAUS70 KWBC 260800 RRD
MTRCSV
METAR KCSV 260753Z AUTO 00000KT 10SM SCT075 23/21 A3010 RMK AO2 SLP167
T02330211


USA.gov is the U.S. government's official web portal to all federal, state and local government web resources and services.